Time;durP1;ratioP1;P1;durP2;ratioP2;P2;SDS_P1;SDS_P2;PMS_P1;PMS_P2;Temp;Humidity;BMP_temperature;BMP_pressure;BME280_temperature;BME280_humidity;BME280_pressure;Samples;Min_cycle;Max_cycle;Signal;HPM_P1;HPM_P2
2022/03/04 00:01:19;;;;;;;10.55;2.78;;;;;;;;;;5064216;28;20555;-60
2022/03/04 00:03:44;;;;;;;7.85;2.35;;;;;;;;;;5063373;28;20085;-60
2022/03/04 00:06:10;;;;;;;9.98;2.90;;;;;;;;;;5052928;28;20029;-60
2022/03/04 00:08:36;;;;;;;7.18;2.38;;;;;;;;;;5057063;28;20392;-60
2022/03/04 00:11:02;;;;;;;4.40;1.85;;;;;;;;;;5060799;28;20158;-60
2022/03/04 00:13:30;;;;;;;10.77;2.13;;;;;;;;;;5054365;28;20036;-59
2022/03/04 00:15:55;;;;;;;7.30;1.70;;;;;;;;;;5060741;28;20032;-60
2022/03/04 00:18:21;;;;;;;4.90;2.35;;;;;;;;;;5065064;28;20282;-60
2022/03/04 00:20:46;;;;;;;6.38;2.25;;;;;;;;;;5057449;28;20040;-60
2022/03/04 00:23:12;;;;;;;6.93;2.65;;;;;;;;;;5062339;28;20032;-60
2022/03/04 00:25:37;;;;;;;3.63;1.95;;;;;;;;;;5067122;28;20060;-61
2022/03/04 00:28:03;;;;;;;6.05;2.15;;;;;;;;;;5066862;28;20267;-60
2022/03/04 00:30:28;;;;;;;5.03;1.75;;;;;;;;;;5061569;28;20492;-60
2022/03/04 00:32:54;;;;;;;6.72;2.53;;;;;;;;;;5065965;28;20423;-60
2022/03/04 00:35:20;;;;;;;4.82;2.47;;;;;;;;;;5060253;28;20056;-60
2022/03/04 00:37:45;;;;;;;4.22;2.10;;;;;;;;;;5066102;28;20089;-60
2022/03/04 00:40:11;;;;;;;6.93;1.85;;;;;;;;;;5066600;28;20290;-60
2022/03/04 00:42:37;;;;;;;5.45;2.03;;;;;;;;;;5057731;28;20035;-60
2022/03/04 00:45:04;;;;;;;7.75;2.20;;;;;;;;;;5060929;28;20020;-61
2022/03/04 00:47:29;;;;;;;8.68;1.90;;;;;;;;;;5062823;28;20395;-61
2022/03/04 00:49:55;;;;;;;3.25;1.50;;;;;;;;;;5064820;28;20024;-60
2022/03/04 00:52:20;;;;;;;4.70;1.58;;;;;;;;;;5064280;28;20067;-61
2022/03/04 00:54:46;;;;;;;6.72;2.08;;;;;;;;;;5060499;28;20491;-60
2022/03/04 00:57:11;;;;;;;9.00;1.58;;;;;;;;;;5068334;28;20028;-60
2022/03/04 00:59:37;;;;;;;3.35;1.50;;;;;;;;;;5055574;28;20056;-60
2022/03/04 01:02:02;;;;;;;5.47;1.90;;;;;;;;;;5042749;28;20120;-60
2022/03/04 01:04:28;;;;;;;7.63;1.42;;;;;;;;;;5040111;28;20455;-60
2022/03/04 01:06:53;;;;;;;7.32;2.00;;;;;;;;;;5042239;28;20029;-60
2022/03/04 01:09:19;;;;;;;7.40;1.77;;;;;;;;;;5042278;28;20048;-60
2022/03/04 01:11:44;;;;;;;6.68;1.40;;;;;;;;;;5045440;28;20415;-60
2022/03/04 01:14:10;;;;;;;2.88;1.00;;;;;;;;;;5036753;28;20416;-60
2022/03/04 01:16:36;;;;;;;4.18;1.40;;;;;;;;;;5041010;28;20075;-60
2022/03/04 01:19:01;;;;;;;5.72;1.42;;;;;;;;;;5039504;28;20122;-60
2022/03/04 01:21:27;;;;;;;2.53;0.90;;;;;;;;;;5042580;28;20112;-60
2022/03/04 01:23:53;;;;;;;4.70;1.17;;;;;;;;;;5039354;28;20044;-61
2022/03/04 01:26:19;;;;;;;2.75;1.17;;;;;;;;;;5041754;28;20033;-60
2022/03/04 01:28:44;;;;;;;3.45;1.10;;;;;;;;;;5038135;28;21695;-62
2022/03/04 01:31:11;;;;;;;2.70;0.68;;;;;;;;;;5039879;28;20033;-60
2022/03/04 01:33:37;;;;;;;3.78;0.98;;;;;;;;;;5043907;28;20029;-60
2022/03/04 01:36:02;;;;;;;1.95;0.93;;;;;;;;;;5043167;28;20151;-60
2022/03/04 01:38:28;;;;;;;3.05;1.17;;;;;;;;;;5040597;28;20461;-59
2022/03/04 01:40:54;;;;;;;5.18;1.17;;;;;;;;;;5042136;28;20044;-59
2022/03/04 01:43:19;;;;;;;1.65;0.80;;;;;;;;;;5044444;28;20383;-59
2022/03/04 01:45:45;;;;;;;3.45;0.85;;;;;;;;;;5042973;28;20048;-60
2022/03/04 01:48:10;;;;;;;1.70;0.95;;;;;;;;;;5042190;28;21076;-60
2022/03/04 01:50:36;;;;;;;1.27;0.60;;;;;;;;;;5044654;28;20063;-58
2022/03/04 01:53:02;;;;;;;4.80;0.93;;;;;;;;;;5035701;28;20052;-59
2022/03/04 01:55:27;;;;;;;9.70;1.38;;;;;;;;;;5038635;28;20115;-59
2022/03/04 01:57:53;;;;;;;6.35;0.52;;;;;;;;;;5038908;28;20021;-59
2022/03/04 02:00:19;;;;;;;2.63;0.88;;;;;;;;;;5039037;28;20104;-59
2022/03/04 02:02:45;;;;;;;2.65;1.00;;;;;;;;;;5038573;28;20067;-59
2022/03/04 02:05:18;;;;;;;1.80;0.50;;;;;;;;;;5035485;28;20056;-60
2022/03/04 02:07:44;;;;;;;2.08;0.90;;;;;;;;;;5037981;28;20037;-60
2022/03/04 02:10:10;;;;;;;6.25;1.23;;;;;;;;;;5038935;28;20036;-59
2022/03/04 02:12:36;;;;;;;3.00;0.95;;;;;;;;;;5034366;28;20026;-60
2022/03/04 02:15:04;;;;;;;5.10;1.30;;;;;;;;;;5035061;28;20087;-60
2022/03/04 02:17:30;;;;;;;5.70;0.85;;;;;;;;;;5038805;28;20033;-59
2022/03/04 02:19:57;;;;;;;4.75;1.08;;;;;;;;;;5045656;28;20021;-59
2022/03/04 02:22:22;;;;;;;7.88;1.40;;;;;;;;;;5039236;28;20068;-59
2022/03/04 02:24:48;;;;;;;8.32;1.40;;;;;;;;;;5045613;28;20523;-59
2022/03/04 02:27:13;;;;;;;4.10;1.08;;;;;;;;;;5045899;28;20029;-59
2022/03/04 02:29:39;;;;;;;2.55;1.13;;;;;;;;;;5036615;28;20479;-60
2022/03/04 02:32:05;;;;;;;4.03;1.13;;;;;;;;;;5038689;28;20143;-58
2022/03/04 02:34:30;;;;;;;4.07;1.50;;;;;;;;;;5040411;28;20503;-60
2022/03/04 02:36:57;;;;;;;3.13;1.15;;;;;;;;;;5036796;28;20036;-61
2022/03/04 02:39:22;;;;;;;4.43;1.42;;;;;;;;;;5033829;28;20099;-61
2022/03/04 02:41:48;;;;;;;3.33;1.13;;;;;;;;;;5056313;28;20503;-60
2022/03/04 02:44:13;;;;;;;5.22;1.17;;;;;;;;;;5035810;28;20024;-60
2022/03/04 02:46:39;;;;;;;8.50;1.33;;;;;;;;;;5040110;28;20087;-60
2022/03/04 02:49:06;;;;;;;4.25;0.52;;;;;;;;;;5033983;28;20033;-60
2022/03/04 02:51:32;;;;;;;3.90;1.20;;;;;;;;;;5040910;28;20036;-60
2022/03/04 02:53:57;;;;;;;2.28;0.60;;;;;;;;;;5041458;28;20043;-60
2022/03/04 02:56:23;;;;;;;13.20;1.10;;;;;;;;;;5037199;28;20048;-60
2022/03/04 02:58:49;;;;;;;3.25;0.77;;;;;;;;;;5040170;28;20492;-61
2022/03/04 03:01:15;;;;;;;2.92;0.57;;;;;;;;;;5040096;28;20029;-60
2022/03/04 03:03:41;;;;;;;6.20;1.10;;;;;;;;;;5043202;28;20036;-60
2022/03/04 03:06:07;;;;;;;1.52;0.90;;;;;;;;;;5041631;28;20036;-60
2022/03/04 03:08:32;;;;;;;4.75;0.65;;;;;;;;;;5037174;28;20056;-59
2022/03/04 03:10:58;;;;;;;3.58;0.90;;;;;;;;;;5040415;28;20060;-58
2022/03/04 03:13:24;;;;;;;9.02;1.20;;;;;;;;;;5038805;28;20033;-59
2022/03/04 03:15:50;;;;;;;4.60;0.73;;;;;;;;;;5043665;28;20052;-59
2022/03/04 03:18:16;;;;;;;1.92;0.50;;;;;;;;;;5041795;28;20118;-60
2022/03/04 03:20:42;;;;;;;4.10;1.05;;;;;;;;;;5039630;28;20082;-60
2022/03/04 03:23:07;;;;;;;5.18;0.90;;;;;;;;;;5043483;28;20521;-60
2022/03/04 03:25:33;;;;;;;7.53;0.98;;;;;;;;;;5041958;28;20087;-60
2022/03/04 03:27:59;;;;;;;5.00;0.93;;;;;;;;;;5040994;28;20033;-59
2022/03/04 03:30:24;;;;;;;9.75;1.48;;;;;;;;;;5037330;28;20728;-59
2022/03/04 03:32:52;;;;;;;5.53;1.15;;;;;;;;;;5042237;28;20053;-59
2022/03/04 03:35:18;;;;;;;3.67;1.00;;;;;;;;;;5037932;28;20037;-59
2022/03/04 03:37:43;;;;;;;1.02;0.32;;;;;;;;;;5039347;28;20412;-59
2022/03/04 03:40:10;;;;;;;2.42;0.90;;;;;;;;;;5043346;28;20483;-59
2022/03/04 03:42:36;;;;;;;8.73;0.65;;;;;;;;;;5035559;28;20036;-60
2022/03/04 03:45:04;;;;;;;2.08;0.82;;;;;;;;;;5037712;28;20033;-60
2022/03/04 03:47:29;;;;;;;6.50;0.80;;;;;;;;;;5036369;28;20041;-61
2022/03/04 03:49:55;;;;;;;8.77;0.80;;;;;;;;;;5035804;28;20503;-59
2022/03/04 03:52:21;;;;;;;3.70;1.05;;;;;;;;;;5039081;28;20086;-59
2022/03/04 03:54:47;;;;;;;4.25;0.88;;;;;;;;;;5038488;28;20365;-59
2022/03/04 03:57:12;;;;;;;4.40;0.80;;;;;;;;;;5035608;28;20043;-60
2022/03/04 03:59:38;;;;;;;5.00;0.80;;;;;;;;;;5046888;28;20112;-59
2022/03/04 04:02:04;;;;;;;7.82;0.85;;;;;;;;;;5044160;28;20029;-58
2022/03/04 04:04:35;;;;;;;4.75;0.90;;;;;;;;;;5043153;28;20035;-59
2022/03/04 04:07:07;;;;;;;9.10;1.02;;;;;;;;;;5048248;28;20040;-59
2022/03/04 04:09:33;;;;;;;8.35;1.38;;;;;;;;;;5041304;28;20065;-60
2022/03/04 04:11:59;;;;;;;6.47;1.20;;;;;;;;;;5045039;28;20038;-59
2022/03/04 04:14:26;;;;;;;9.30;0.73;;;;;;;;;;5037820;28;21233;-59
2022/03/04 04:16:52;;;;;;;7.88;0.85;;;;;;;;;;5045263;28;20043;-59
2022/03/04 04:19:17;;;;;;;6.05;0.77;;;;;;;;;;5043751;28;20355;-59
2022/03/04 04:21:43;;;;;;;4.00;0.88;;;;;;;;;;5036280;28;20036;-59
2022/03/04 04:24:08;;;;;;;5.00;0.65;;;;;;;;;;5046360;28;20528;-59
2022/03/04 04:26:34;;;;;;;8.77;0.82;;;;;;;;;;5046870;28;20033;-59
2022/03/04 04:29:00;;;;;;;6.45;1.08;;;;;;;;;;5041943;28;20022;-59
2022/03/04 04:31:25;;;;;;;4.43;0.85;;;;;;;;;;5035704;28;20081;-59
2022/03/04 04:33:51;;;;;;;11.32;0.85;;;;;;;;;;5036344;28;20037;-59
2022/03/04 04:36:18;;;;;;;5.30;0.95;;;;;;;;;;5042002;28;20086;-59
2022/03/04 04:38:43;;;;;;;3.45;0.85;;;;;;;;;;5046419;28;20051;-59
2022/03/04 04:41:09;;;;;;;2.80;0.93;;;;;;;;;;5042113;28;20037;-60
2022/03/04 04:43:35;;;;;;;3.78;0.82;;;;;;;;;;5041739;28;20157;-59
2022/03/04 04:46:01;;;;;;;5.80;1.48;;;;;;;;;;5034866;28;20413;-59
2022/03/04 04:48:26;;;;;;;6.95;0.80;;;;;;;;;;5037601;28;20496;-59
2022/03/04 04:50:52;;;;;;;10.60;1.88;;;;;;;;;;5044189;28;20039;-59
2022/03/04 04:53:17;;;;;;;4.47;1.05;;;;;;;;;;5045872;28;20132;-59
2022/03/04 04:55:43;;;;;;;5.15;1.02;;;;;;;;;;5045223;28;20034;-59
2022/03/04 04:58:08;;;;;;;6.97;1.30;;;;;;;;;;5041912;28;20144;-60
2022/03/04 05:00:34;;;;;;;23.48;1.75;;;;;;;;;;5043820;28;20025;-60
2022/03/04 05:02:59;;;;;;;6.53;1.25;;;;;;;;;;5035554;28;20039;-60
2022/03/04 05:05:25;;;;;;;4.85;1.27;;;;;;;;;;5039426;28;20094;-60
2022/03/04 05:07:50;;;;;;;10.48;1.38;;;;;;;;;;5038092;28;20025;-59
2022/03/04 05:10:16;;;;;;;3.65;0.95;;;;;;;;;;5043586;28;20048;-60
2022/03/04 05:12:41;;;;;;;7.72;1.10;;;;;;;;;;5039450;28;20051;-60
2022/03/04 05:15:08;;;;;;;6.13;0.93;;;;;;;;;;5041434;28;20112;-60
2022/03/04 05:17:33;;;;;;;8.80;1.02;;;;;;;;;;5042412;28;20052;-60
2022/03/04 05:19:59;;;;;;;11.38;1.17;;;;;;;;;;5036829;28;20495;-60
2022/03/04 05:22:24;;;;;;;4.93;0.90;;;;;;;;;;5032981;28;21923;-59
2022/03/04 05:24:50;;;;;;;9.80;1.45;;;;;;;;;;5038974;28;20037;-61
2022/03/04 05:27:15;;;;;;;7.32;0.98;;;;;;;;;;5041557;28;20103;-59
2022/03/04 05:29:41;;;;;;;4.68;0.88;;;;;;;;;;5040527;28;20033;-59
2022/03/04 05:32:07;;;;;;;5.30;2.35;;;;;;;;;;5038803;28;20080;-60
2022/03/04 05:34:33;;;;;;;4.40;0.73;;;;;;;;;;5041211;28;20035;-60
2022/03/04 05:36:59;;;;;;;9.35;1.52;;;;;;;;;;5040560;28;20499;-59
2022/03/04 05:39:24;;;;;;;5.93;1.10;;;;;;;;;;5043360;28;20037;-60
2022/03/04 05:41:50;;;;;;;8.73;1.05;;;;;;;;;;5039455;28;20506;-59
2022/03/04 05:44:15;;;;;;;1.10;0.43;;;;;;;;;;5033476;28;20136;-60
2022/03/04 05:46:41;;;;;;;11.13;1.33;;;;;;;;;;5039406;28;20507;-60
2022/03/04 05:49:07;;;;;;;6.22;0.65;;;;;;;;;;5044166;28;20719;-60
2022/03/04 05:51:35;;;;;;;4.55;0.65;;;;;;;;;;5045888;28;20040;-60
2022/03/04 05:54:01;;;;;;;11.38;1.33;;;;;;;;;;5041669;28;20036;-59
2022/03/04 05:56:26;;;;;;;9.10;0.77;;;;;;;;;;5037983;28;20573;-60
2022/03/04 05:58:52;;;;;;;4.00;1.38;;;;;;;;;;5040494;28;20054;-60
2022/03/04 06:01:18;;;;;;;6.93;0.85;;;;;;;;;;5039405;28;20140;-60
2022/03/04 06:03:43;;;;;;;9.52;1.75;;;;;;;;;;5041221;28;20036;-60
2022/03/04 06:06:12;;;;;;;11.02;1.10;;;;;;;;;;5041634;28;20037;-60
2022/03/04 06:08:38;;;;;;;4.13;0.47;;;;;;;;;;5042704;28;20033;-60
2022/03/04 06:11:03;;;;;;;10.50;1.02;;;;;;;;;;5042991;28;20029;-60
2022/03/04 06:13:29;;;;;;;5.95;1.10;;;;;;;;;;5042428;28;20128;-59
2022/03/04 06:15:54;;;;;;;5.45;1.55;;;;;;;;;;5036705;28;20154;-60
2022/03/04 06:18:21;;;;;;;6.88;1.20;;;;;;;;;;5044001;28;20518;-60
2022/03/04 06:20:46;;;;;;;9.13;1.30;;;;;;;;;;5039687;28;20577;-60
2022/03/04 06:23:13;;;;;;;7.53;1.00;;;;;;;;;;5045975;28;20033;-59
2022/03/04 06:25:38;;;;;;;5.18;0.88;;;;;;;;;;5036909;28;20048;-59
2022/03/04 06:28:04;;;;;;;11.50;2.15;;;;;;;;;;5040832;28;20022;-60
2022/03/04 06:30:32;;;;;;;8.55;0.75;;;;;;;;;;5040917;28;20025;-59
2022/03/04 06:35:44;;;;;;;2.55;0.57;;;;;;;;;;5040599;28;20128;-60
2022/03/04 06:38:10;;;;;;;4.18;0.80;;;;;;;;;;5038543;28;20082;-61
2022/03/04 06:40:36;;;;;;;15.23;0.85;;;;;;;;;;5036087;28;20033;-61
2022/03/04 06:43:02;;;;;;;5.18;1.75;;;;;;;;;;5037680;28;20040;-61
2022/03/04 06:45:28;;;;;;;4.28;0.82;;;;;;;;;;5039187;28;20033;-61
2022/03/04 06:47:53;;;;;;;4.60;1.88;;;;;;;;;;5037979;28;20029;-61
2022/03/04 06:50:19;;;;;;;12.38;1.15;;;;;;;;;;5036171;28;20029;-60
2022/03/04 06:52:44;;;;;;;5.25;1.15;;;;;;;;;;5032386;28;20071;-60
2022/03/04 06:55:11;;;;;;;5.07;0.88;;;;;;;;;;5052588;28;20494;-60
2022/03/04 06:57:37;;;;;;;12.13;1.27;;;;;;;;;;5039047;28;20453;-60
2022/03/04 07:00:07;;;;;;;6.82;1.38;;;;;;;;;;5038837;28;20029;-60
2022/03/04 07:02:34;;;;;;;7.30;0.70;;;;;;;;;;5034409;28;20045;-59
2022/03/04 07:05:05;;;;;;;2.85;0.95;;;;;;;;;;5035516;28;20044;-59
2022/03/04 07:07:31;;;;;;;4.15;0.63;;;;;;;;;;5039618;28;20556;-59
2022/03/04 07:09:56;;;;;;;11.85;1.10;;;;;;;;;;5034481;28;20041;-60
2022/03/04 07:12:22;;;;;;;9.20;1.23;;;;;;;;;;5037866;28;20040;-61
2022/03/04 07:14:47;;;;;;;8.18;0.88;;;;;;;;;;5036990;28;20098;-60
2022/03/04 07:17:14;;;;;;;5.78;1.30;;;;;;;;;;5035901;28;20056;-60
2022/03/04 07:19:39;;;;;;;2.13;0.73;;;;;;;;;;5040604;28;20048;-61
2022/03/04 07:22:05;;;;;;;4.97;0.95;;;;;;;;;;5036602;28;20458;-61
2022/03/04 07:24:30;;;;;;;14.15;1.38;;;;;;;;;;5044215;28;20102;-60
2022/03/04 07:26:57;;;;;;;4.65;0.60;;;;;;;;;;5037654;28;20034;-60
2022/03/04 07:29:23;;;;;;;10.55;1.13;;;;;;;;;;5038391;28;20129;-60
2022/03/04 07:31:49;;;;;;;10.27;1.40;;;;;;;;;;5035614;28;20127;-60
2022/03/04 07:34:14;;;;;;;10.18;1.17;;;;;;;;;;5042190;28;20037;-59
2022/03/04 07:36:40;;;;;;;5.32;0.85;;;;;;;;;;5045526;28;20024;-59
2022/03/04 07:39:05;;;;;;;9.35;1.38;;;;;;;;;;5046050;28;20033;-60
2022/03/04 07:41:31;;;;;;;6.82;0.70;;;;;;;;;;5039707;28;20086;-59
2022/03/04 07:43:59;;;;;;;6.03;1.80;;;;;;;;;;5043537;28;20033;-60
2022/03/04 07:46:24;;;;;;;5.60;1.15;;;;;;;;;;5041397;28;20142;-60
2022/03/04 07:48:50;;;;;;;2.80;0.85;;;;;;;;;;5038388;28;20158;-60
2022/03/04 07:51:17;;;;;;;6.93;0.98;;;;;;;;;;5045267;28;20030;-60
2022/03/04 07:53:42;;;;;;;3.05;0.50;;;;;;;;;;5047580;28;20036;-59
2022/03/04 07:56:10;;;;;;;13.45;0.98;;;;;;;;;;5040211;28;20040;-60
2022/03/04 07:58:36;;;;;;;9.75;1.27;;;;;;;;;;5040435;28;20037;-60
2022/03/04 08:01:03;;;;;;;6.43;0.88;;;;;;;;;;5044631;28;20106;-60
2022/03/04 08:03:29;;;;;;;5.53;1.35;;;;;;;;;;5040987;28;20502;-60
2022/03/04 08:05:55;;;;;;;9.85;1.50;;;;;;;;;;5043647;28;20100;-60
2022/03/04 08:08:20;;;;;;;13.32;1.38;;;;;;;;;;5043541;28;20435;-60
2022/03/04 08:10:45;;;;;;;13.10;1.85;;;;;;;;;;5044019;28;20120;-60
2022/03/04 08:13:11;;;;;;;3.45;0.85;;;;;;;;;;5041329;28;20036;-60
2022/03/04 08:15:36;;;;;;;3.10;0.80;;;;;;;;;;5041539;28;20130;-60
2022/03/04 08:18:05;;;;;;;5.07;1.13;;;;;;;;;;5033917;28;21512;-61
2022/03/04 08:20:32;;;;;;;4.07;1.50;;;;;;;;;;5041677;28;20041;-61
2022/03/04 08:22:58;;;;;;;7.32;1.40;;;;;;;;;;5042830;28;20033;-60
2022/03/04 08:25:24;;;;;;;5.07;1.05;;;;;;;;;;5042697;28;20037;-60
2022/03/04 08:27:50;;;;;;;7.78;1.50;;;;;;;;;;5043036;28;20040;-60
2022/03/04 08:30:16;;;;;;;15.27;1.83;;;;;;;;;;5038077;28;20028;-61
2022/03/04 08:32:41;;;;;;;11.15;1.42;;;;;;;;;;5042983;28;20051;-61
2022/03/04 08:35:08;;;;;;;5.30;1.20;;;;;;;;;;5043930;28;20284;-61
2022/03/04 08:37:34;;;;;;;9.27;1.23;;;;;;;;;;5043900;28;20048;-60
2022/03/04 08:39:59;;;;;;;8.65;1.20;;;;;;;;;;5046604;28;20025;-60
2022/03/04 08:42:26;;;;;;;7.15;1.10;;;;;;;;;;5041767;28;20530;-61
2022/03/04 08:44:52;;;;;;;4.60;1.05;;;;;;;;;;5041856;28;20036;-62
2022/03/04 08:47:21;;;;;;;7.93;1.27;;;;;;;;;;5044764;28;20060;-61
2022/03/04 08:49:47;;;;;;;5.00;1.52;;;;;;;;;;5049276;28;20104;-61
2022/03/04 08:52:12;;;;;;;4.68;1.13;;;;;;;;;;5043536;28;20422;-61
2022/03/04 08:54:38;;;;;;;10.93;1.48;;;;;;;;;;5040647;28;20043;-61
2022/03/04 08:57:04;;;;;;;4.60;0.90;;;;;;;;;;5043886;28;20086;-61
2022/03/04 08:59:30;;;;;;;11.05;1.98;;;;;;;;;;5046660;28;20025;-61
2022/03/04 09:01:56;;;;;;;9.10;1.05;;;;;;;;;;5043111;28;20060;-61
2022/03/04 09:04:22;;;;;;;7.07;0.75;;;;;;;;;;5041577;28;20036;-62
2022/03/04 09:06:48;;;;;;;6.13;1.48;;;;;;;;;;5039892;28;20480;-62
2022/03/04 09:09:13;;;;;;;8.75;1.35;;;;;;;;;;5042286;28;20029;-62
2022/03/04 09:11:39;;;;;;;4.57;0.73;;;;;;;;;;5039801;28;20569;-61
2022/03/04 09:14:05;;;;;;;5.57;1.08;;;;;;;;;;5038624;28;20036;-62
2022/03/04 09:16:31;;;;;;;5.15;1.80;;;;;;;;;;5041397;28;20040;-62
2022/03/04 09:18:56;;;;;;;6.97;1.10;;;;;;;;;;5045597;28;20504;-61
2022/03/04 09:21:21;;;;;;;8.35;0.98;;;;;;;;;;5040739;28;20594;-61
2022/03/04 09:23:47;;;;;;;13.23;1.42;;;;;;;;;;5048546;28;20090;-61
2022/03/04 09:26:12;;;;;;;5.70;1.10;;;;;;;;;;5040843;28;20086;-61
2022/03/04 09:28:38;;;;;;;4.63;1.20;;;;;;;;;;5044373;28;20030;-60
2022/03/04 09:31:03;;;;;;;16.02;2.78;;;;;;;;;;5044523;28;20017;-60
2022/03/04 09:33:29;;;;;;;4.78;1.00;;;;;;;;;;5041505;28;20043;-61
2022/03/04 09:35:55;;;;;;;4.22;0.70;;;;;;;;;;5044095;28;20056;-60
2022/03/04 09:38:20;;;;;;;3.85;1.05;;;;;;;;;;5040408;28;20108;-60
2022/03/04 09:40:49;;;;;;;6.72;1.27;;;;;;;;;;5042598;28;20091;-60
2022/03/04 09:43:18;;;;;;;8.30;1.35;;;;;;;;;;5042781;28;20033;-60
2022/03/04 09:45:46;;;;;;;8.32;1.20;;;;;;;;;;5043102;28;20033;-60
2022/03/04 09:48:12;;;;;;;3.72;1.25;;;;;;;;;;5043749;28;20061;-61
2022/03/04 09:50:38;;;;;;;6.53;1.35;;;;;;;;;;5048075;28;20028;-61
2022/03/04 09:53:09;;;;;;;5.25;1.30;;;;;;;;;;5043551;28;20039;-60
2022/03/04 09:55:34;;;;;;;9.00;0.95;;;;;;;;;;5044994;28;20186;-60
2022/03/04 09:58:00;;;;;;;5.55;1.20;;;;;;;;;;5040702;28;20293;-60
2022/03/04 10:00:25;;;;;;;10.63;1.73;;;;;;;;;;5041909;28;20480;-60
2022/03/04 10:02:52;;;;;;;6.03;1.25;;;;;;;;;;5042422;28;20036;-60
2022/03/04 10:05:17;;;;;;;10.15;1.05;;;;;;;;;;5044591;28;20037;-60
2022/03/04 10:07:46;;;;;;;9.43;0.57;;;;;;;;;;5037041;28;20412;-60
2022/03/04 10:10:15;;;;;;;9.18;1.15;;;;;;;;;;5041468;28;20040;-61
2022/03/04 10:12:54;;;;;;;10.18;1.40;;;;;;;;;;5040254;28;20117;-61
2022/03/04 10:15:21;;;;;;;12.18;1.80;;;;;;;;;;5041255;28;20115;-61
2022/03/04 10:17:56;;;;;;;8.15;0.68;;;;;;;;;;5042814;28;20530;-61
2022/03/04 10:20:34;;;;;;;6.80;1.38;;;;;;;;;;5042198;28;20056;-61
2022/03/04 10:23:18;;;;;;;8.23;1.52;;;;;;;;;;5045053;28;20117;-61
2022/03/04 10:25:46;;;;;;;8.93;1.25;;;;;;;;;;5042115;28;20051;-61
2022/03/04 10:28:12;;;;;;;10.18;1.02;;;;;;;;;;5040391;28;20028;-61
2022/03/04 10:30:43;;;;;;;10.38;1.20;;;;;;;;;;5043889;28;20411;-61
2022/03/04 10:33:10;;;;;;;7.78;1.33;;;;;;;;;;5040718;28;20420;-60
2022/03/04 10:35:38;;;;;;;6.38;0.90;;;;;;;;;;5043436;28;20041;-61
2022/03/04 10:38:04;;;;;;;10.32;0.90;;;;;;;;;;5039305;28;20147;-61
2022/03/04 10:40:43;;;;;;;6.47;0.70;;;;;;;;;;5044153;28;20037;-60
2022/03/04 10:43:09;;;;;;;8.32;1.15;;;;;;;;;;5040163;28;20032;-60
2022/03/04 10:45:42;;;;;;;8.70;0.95;;;;;;;;;;5041687;28;20074;-60
2022/03/04 10:48:10;;;;;;;5.47;0.57;;;;;;;;;;5040526;28;20032;-61
2022/03/04 10:50:39;;;;;;;4.57;0.95;;;;;;;;;;5042772;28;20052;-60
2022/03/04 10:53:05;;;;;;;9.00;0.88;;;;;;;;;;5045874;28;20025;-60
2022/03/04 10:55:48;;;;;;;7.88;1.40;;;;;;;;;;5046562;28;20665;-60
2022/03/04 10:58:25;;;;;;;5.65;0.80;;;;;;;;;;5036980;28;20051;-60
2022/03/04 11:01:00;;;;;;;3.75;0.35;;;;;;;;;;5042240;28;20029;-60
2022/03/04 11:03:31;;;;;;;18.50;0.95;;;;;;;;;;5032487;28;20029;-60
2022/03/04 11:05:59;;;;;;;6.10;0.68;;;;;;;;;;5040777;28;20460;-60
2022/03/04 11:08:25;;;;;;;4.47;0.52;;;;;;;;;;5042168;28;20104;-60
2022/03/04 11:10:52;;;;;;;12.15;1.27;;;;;;;;;;5045828;28;20058;-60
2022/03/04 11:13:19;;;;;;;2.60;0.47;;;;;;;;;;5038230;28;20296;-61
2022/03/04 11:15:46;;;;;;;6.03;0.63;;;;;;;;;;5043888;28;20083;-60
2022/03/04 11:18:14;;;;;;;7.40;0.40;;;;;;;;;;5038484;28;20045;-59
2022/03/04 11:20:42;;;;;;;2.75;0.52;;;;;;;;;;5039127;28;20025;-60
2022/03/04 11:23:09;;;;;;;2.70;0.57;;;;;;;;;;5046698;28;20566;-60
2022/03/04 11:25:43;;;;;;;1.55;0.75;;;;;;;;;;5038866;28;20032;-60
2022/03/04 11:28:17;;;;;;;6.03;1.13;;;;;;;;;;5033276;28;20590;-60
2022/03/04 11:30:48;;;;;;;11.93;1.08;;;;;;;;;;5038401;28;20033;-60
2022/03/04 11:33:43;;;;;;;2.85;0.68;;;;;;;;;;5031994;28;20077;-60
2022/03/04 11:36:11;;;;;;;4.68;0.57;;;;;;;;;;5027036;28;20036;-60
2022/03/04 11:38:46;;;;;;;10.73;0.68;;;;;;;;;;5044505;28;20121;-60
2022/03/04 11:41:17;;;;;;;4.25;0.38;;;;;;;;;;5040552;28;20036;-60
2022/03/04 11:43:47;;;;;;;7.13;0.73;;;;;;;;;;5042791;28;20447;-59
2022/03/04 11:46:40;;;;;;;10.82;1.33;;;;;;;;;;5038171;28;20551;-59
2022/03/04 11:49:35;;;;;;;5.38;0.40;;;;;;;;;;5036976;28;20025;-60
2022/03/04 11:52:10;;;;;;;6.07;0.70;;;;;;;;;;5032601;28;20527;-60
2022/03/04 11:54:44;;;;;;;7.07;1.17;;;;;;;;;;5036267;28;20035;-60
2022/03/04 11:57:27;;;;;;;9.32;0.98;;;;;;;;;;5040773;28;20064;-60
2022/03/04 12:00:05;;;;;;;8.48;0.80;;;;;;;;;;5037057;28;20108;-60
2022/03/04 12:02:46;;;;;;;8.43;0.60;;;;;;;;;;5040689;28;20105;-60
2022/03/04 12:05:19;;;;;;;3.08;0.65;;;;;;;;;;5044429;28;20030;-60
2022/03/04 12:08:05;;;;;;;3.85;0.40;;;;;;;;;;5035105;28;20033;-60
2022/03/04 12:10:37;;;;;;;3.50;0.25;;;;;;;;;;5041993;28;20111;-60
2022/03/04 12:13:02;;;;;;;2.50;0.38;;;;;;;;;;5037634;28;20039;-59
2022/03/04 12:15:29;;;;;;;7.82;1.05;;;;;;;;;;5043518;28;20295;-60
2022/03/04 12:17:59;;;;;;;4.80;0.40;;;;;;;;;;5043433;28;20033;-60
2022/03/04 12:20:38;;;;;;;4.95;0.50;;;;;;;;;;5045542;28;20103;-60
2022/03/04 12:23:19;;;;;;;8.70;0.75;;;;;;;;;;5041839;28;20029;-61
2022/03/04 12:25:54;;;;;;;4.38;0.70;;;;;;;;;;5037514;28;20036;-60
2022/03/04 12:28:22;;;;;;;5.20;0.63;;;;;;;;;;5042628;28;20029;-61
2022/03/04 12:31:13;;;;;;;6.85;0.55;;;;;;;;;;5043867;28;20204;-61
2022/03/04 12:33:52;;;;;;;6.43;0.55;;;;;;;;;;5042207;28;20474;-60
2022/03/04 12:36:18;;;;;;;3.70;0.30;;;;;;;;;;5045756;28;20025;-60
2022/03/04 12:38:47;;;;;;;3.05;0.60;;;;;;;;;;5043002;28;20081;-60
2022/03/04 12:41:17;;;;;;;5.03;0.50;;;;;;;;;;5040774;28;20060;-60
2022/03/04 12:43:51;;;;;;;9.43;0.40;;;;;;;;;;5042468;28;20155;-60
2022/03/04 12:46:19;;;;;;;2.95;0.32;;;;;;;;;;5044804;28;20036;-60
2022/03/04 12:48:45;;;;;;;2.80;0.40;;;;;;;;;;5043778;28;20058;-60
2022/03/04 12:51:28;;;;;;;3.10;0.22;;;;;;;;;;5035228;28;20068;-60
2022/03/04 12:53:57;;;;;;;8.73;0.50;;;;;;;;;;5046100;28;20056;-59
2022/03/04 12:56:22;;;;;;;5.03;0.68;;;;;;;;;;5037917;28;20083;-59
2022/03/04 12:58:50;;;;;;;4.93;0.57;;;;;;;;;;5043964;28;20131;-59
2022/03/04 13:01:19;;;;;;;7.57;0.55;;;;;;;;;;5039157;28;20036;-60
2022/03/04 13:03:50;;;;;;;2.13;0.20;;;;;;;;;;5040990;28;20053;-60
2022/03/04 13:06:17;;;;;;;5.40;0.40;;;;;;;;;;5038164;28;20067;-60
2022/03/04 13:08:47;;;;;;;9.93;1.23;;;;;;;;;;5036694;28;20029;-59
2022/03/04 13:11:22;;;;;;;7.32;1.20;;;;;;;;;;5043638;28;20033;-59
2022/03/04 13:13:53;;;;;;;4.85;0.45;;;;;;;;;;5036971;28;20033;-60
2022/03/04 13:16:42;;;;;;;8.13;1.10;;;;;;;;;;5043346;28;20036;-59
2022/03/04 13:19:10;;;;;;;2.67;0.65;;;;;;;;;;5038792;28;20411;-59
2022/03/04 13:21:42;;;;;;;5.75;0.35;;;;;;;;;;5034946;28;20052;-59
2022/03/04 13:24:44;;;;;;;3.70;0.70;;;;;;;;;;5045085;28;20119;-60
2022/03/04 13:27:10;;;;;;;6.13;0.80;;;;;;;;;;5030052;28;20064;-60
2022/03/04 13:29:41;;;;;;;4.15;0.88;;;;;;;;;;5040300;28;20017;-60
2022/03/04 13:32:15;;;;;;;5.95;1.00;;;;;;;;;;5043008;28;20120;-60
2022/03/04 13:34:46;;;;;;;4.78;0.63;;;;;;;;;;5045820;28;20047;-60
2022/03/04 13:37:19;;;;;;;2.92;0.40;;;;;;;;;;5040829;28;20599;-61
2022/03/04 13:39:56;;;;;;;2.75;0.30;;;;;;;;;;5044248;28;20479;-60
2022/03/04 13:42:26;;;;;;;6.95;0.38;;;;;;;;;;5049211;28;20029;-60
2022/03/04 13:45:09;;;;;;;6.13;0.50;;;;;;;;;;5044808;28;20021;-60
2022/03/04 13:47:42;;;;;;;9.65;0.93;;;;;;;;;;5040864;28;20108;-60
2022/03/04 13:50:20;;;;;;;4.45;0.70;;;;;;;;;;5043659;28;20025;-60
2022/03/04 13:52:59;;;;;;;7.35;0.65;;;;;;;;;;5037369;28;20024;-60
2022/03/04 13:55:47;;;;;;;1.55;0.43;;;;;;;;;;5039897;28;20479;-60
2022/03/04 13:58:19;;;;;;;2.42;0.47;;;;;;;;;;5039769;28;20483;-60
2022/03/04 14:00:49;;;;;;;3.90;0.50;;;;;;;;;;5045932;28;20113;-61
2022/03/04 14:03:17;;;;;;;5.75;0.38;;;;;;;;;;5042494;28;20025;-59
2022/03/04 14:05:44;;;;;;;5.70;0.57;;;;;;;;;;5038644;28;20092;-60
2022/03/04 14:08:14;;;;;;;4.18;0.60;;;;;;;;;;5037138;28;20057;-60
2022/03/04 14:10:44;;;;;;;4.75;0.60;;;;;;;;;;5037828;28;20434;-59
2022/03/04 14:13:11;;;;;;;3.42;0.65;;;;;;;;;;5040652;28;20456;-59
2022/03/04 14:15:39;;;;;;;6.45;1.55;;;;;;;;;;5042523;28;20032;-60
2022/03/04 14:18:07;;;;;;;4.78;0.55;;;;;;;;;;5043469;28;20023;-58
2022/03/04 14:20:34;;;;;;;4.50;0.60;;;;;;;;;;5045839;28;20029;-59
2022/03/04 14:22:59;;;;;;;2.55;0.60;;;;;;;;;;5040347;28;20063;-60
2022/03/04 14:25:25;;;;;;;2.90;0.40;;;;;;;;;;5039612;28;20032;-59
2022/03/04 14:27:54;;;;;;;1.85;0.40;;;;;;;;;;5040418;28;20121;-60
2022/03/04 14:30:40;;;;;;;7.60;0.65;;;;;;;;;;5042409;28;20067;-60
2022/03/04 14:33:09;;;;;;;4.95;1.10;;;;;;;;;;5042556;28;20045;-59
2022/03/04 14:35:36;;;;;;;3.17;0.60;;;;;;;;;;5045455;28;20036;-60
2022/03/04 14:38:03;;;;;;;3.45;0.50;;;;;;;;;;5041393;28;20553;-59
2022/03/04 14:40:29;;;;;;;7.50;0.55;;;;;;;;;;5041863;28;20041;-60
2022/03/04 14:42:57;;;;;;;9.68;0.63;;;;;;;;;;5041760;28;20075;-59
2022/03/04 14:45:25;;;;;;;2.33;0.47;;;;;;;;;;5039723;28;20033;-60
2022/03/04 14:47:52;;;;;;;5.22;0.45;;;;;;;;;;5044239;28;20033;-60